Jacobs, Kentucky
Current Conditions -  °F | °C
As of 2:50 AM on Wednesday 22 Oct 2014 (Local Time) from KSYM Reporting Station
Broken Clouds Broken Clouds  
Wind Chill: 43°   Ceiling: 4200
Heat Index: 43°   Visibility: 10mi
Dew Point: 39°   Wind: 0mph
Humidity: 87%   Direction: NA
Pressure: 30.17"   Gusts: NA
Location:  38.23°N, 83.24°W
Report Text: KSYM 220650Z AUTO 00000KT 10SM SCT034 BKN042 06/04 A3017 RMK AO2
Loading
Personal Weather Stations






























Interactive Weather Map
Tropical Storm Tracking
New forecast layout! Learn more

10-Day Weather Forecast

Advertisements
Track Severe Weather on mobile